Impacts TAF Board
For situational awareness. Not to be used for flight planning purposes.
IDs:

KSEA - Seattle-Tacoma Intl, WA, US

Issued at 2324 UTC 23 Oct 2019
Updated at 2331 UTC 23 Oct 2019
Potential Impact None Slight Moderate High
Time2253Z 24/00Z 24/01Z 24/02Z 24/03Z 24/04Z 24/05Z 24/06Z 24/07Z 24/08Z 24/09Z 24/10Z 24/11Z 24/12Z>>
Type OBS PRVL PRVL PRVL PRVL PRVL PRVL PRVL PRVL PRVL PRVL PRVL PRVL PRVL
VIS 10 >6 >6 >6 >6 >6 >6 >6 >6 >6 5 5 5 1
CIG 250 250 250 250 250 250 250 250 250 250 250 250 250 250
Cover BKN BKN BKN BKN BKN BKN BKN BKN BKN BKN OVC OVC OVC OVC
FltCat VFR VFR VFR VFR VFR VFR VFR VFR VFR VFR MVFR MVFR MVFR IFR
WX -- -- -- -- -- -- -- -- -- -- BR BR BR BR
WDir 320 350 350 350 350 350 350 350 350 350 40 40 40 100
WSpd 7 7 7 7 7 7 7 7 7 7 5 5 5 3
WGst -- -- -- -- -- -- -- -- -- -- -- -- -- --
Raw TAF
KSEA 232324Z 2400/2506 35007KT P6SM BKN250
  FM240900 04005KT 5SM BR OVC250
  FM241200 10003KT 1SM BR SCT004 OVC250
  FM241800 35005KT P6SM BKN250
  FM250400 02003KT P6SM BKN250


Raw METAR
KSEA 232253Z 32007KT 10SM FEW025 FEW160 BKN250 13/07 A3047 RMK AO2 SLP327 T01330067 $
KSEA 232153Z 35008KT 10SM FEW020 FEW160 BKN250 14/07 A3047 RMK AO2 SLP325 T01390067 $
KSEA 232053Z 35007KT 10SM FEW020 BKN250 14/07 A3048 RMK AO2 SLP329 T01390067 58009 $

METAR Board
Radar Display
Forecast Discussion
For situational awareness. Not to be used for flight planning purposes.